Diane H — WUR7250 — position and weather

sailwx.info

Track history (hours):
 
Tides and Currents Weather Stations Pressure Air Temp Water Temp Dewpoint Dewpoint Depression Visibility Wind Speed Wind Dir Waves Ship Positions

Diane H

Owner: BOYER TOWING INC, KETCHIKAN, AK. More information available from US FCC via Universal Licensing System and Coast Guard Vessel Documentation Center.

Last reported at 2015-Oct-30 13:13 UTC. Time now 2016-Feb-11 10:43 UTC.
Position N 47°32' W 122°20'.
Warning: this ship's position is months out of date.

Type: Towing. MMSI: 366673090.

Date/timePositionNaut miles runAvg speedWind from/ knotsBaromVisibWave heightAir tempDewpointWater temp
2015-Oct-30 13:13N 47°32' W 122°20'0 0.0
2015-Oct-30 12:22N 47°32' W 122°20'0 0.0
2015-Oct-30 11:22N 47°32' W 122°20'1 1.2
2015-Oct-30 10:33N 47°33' W 122°20'3 3.1
2015-Oct-30 09:33N 47°36' W 122°22'0 0.0
2015-Oct-30 09:33N 47°36' W 122°22'5 5.3
2015-Oct-30 08:34N 47°39' W 122°28'0 5.4
2015-Oct-30 08:33N 47°39' W 122°28'6 6.3
2015-Oct-30 07:34N 47°46' W 122°27'0 6.8
2015-Oct-30 07:33N 47°46' W 122°27'6 6.1
2015-Oct-30 06:33N 47°52' W 122°29'5 4.6
2015-Oct-30 05:33N 47°56' W 122°32'27 5.0
2015-Oct-30 00:11N 48°21' W 122°46'4 6.7
2015-Oct-29 23:33N 48°25' W 122°45'7 6.6
2015-Oct-29 22:33N 48°32' W 122°45'7 7.0
2015-Oct-29 21:33N 48°39' W 122°44'7 7.4
2015-Oct-29 20:33N 48°45' W 122°49'8 7.7
2015-Oct-29 19:30N 48°50' W 122°59'7 7.1
2015-Oct-29 18:33N 48°54' W 123°08'8 7.6
2015-Oct-29 17:33N 48°59' W 123°16'7 7.1
2015-Oct-29 16:33N 49°03' W 123°25'7 7.1
2015-Oct-29 15:33N 49°08' W 123°33'6 6.5
2015-Oct-29 14:33N 49°12' W 123°40'6 6.3
2015-Oct-29 13:33N 49°17' W 123°47'6 5.9
2015-Oct-29 12:33N 49°21' W 123°53'6 5.8
2015-Oct-29 11:33N 49°24' W 124°00'6 5.7
2015-Oct-29 10:33N 49°28' W 124°07'6 6.2
2015-Oct-29 09:33N 49°32' W 124°15'6 6.5
2015-Oct-29 08:33N 49°34' W 124°24'6 6.4
2015-Oct-29 07:33N 49°38' W 124°32'6 6.3
2015-Oct-29 06:33N 49°42' W 124°39'6 5.9
2015-Oct-29 05:33N 49°46' W 124°46'6 6.0
2015-Oct-29 04:33N 49°50' W 124°54'4 4.4
2015-Oct-29 03:33N 49°52' W 124°59'4 4.1
2015-Oct-29 02:33N 49°55' W 125°04'7 6.7
2015-Oct-29 01:33N 49°59' W 125°12'8 8.2
2015-Oct-29 00:33N 50°06' W 125°18'8 8.1
2015-Oct-28 23:32N 50°14' W 125°23'7 6.7
2015-Oct-28 22:33N 50°20' W 125°26'57 3.7
2015-Oct-28 07:09N 50°39' W 126°50'4 6.3
2015-Oct-28 06:31N 50°42' W 126°55'5 5.6
2015-Oct-28 05:33N 50°45' W 127°01'5 5.4
2015-Oct-28 04:33N 50°49' W 127°08'5 5.4
2015-Oct-28 03:33N 50°51' W 127°16'5 4.7
2015-Oct-28 02:33N 50°54' W 127°22'4 4.2
2015-Oct-28 01:33N 50°56' W 127°27'5 4.8
2015-Oct-28 00:33N 50°59' W 127°34'5 5.0
2015-Oct-27 23:33N 51°03' W 127°39'6 5.7
2015-Oct-27 22:33N 51°07' W 127°46'23 7.5
2015-Oct-27 19:29N 51°29' W 127°51'24 8.2
2015-Oct-27 16:31N 51°53' W 127°56'8 8.4
2015-Oct-27 15:33N 52°01' W 127°56'7 6.6
2015-Oct-27 14:33N 52°05' W 128°05'6 6.2
2015-Oct-27 13:33N 52°11' W 128°06'7 6.6
2015-Oct-27 12:33N 52°14' W 128°16'  
2015-Oct-22 01:00N 60°12' W 145°30'   050 / 15994.510.8 0.5 9.4
Track history (hours):
 
Tides and Currents Weather Stations Pressure Air Temp Water Temp Dewpoint Dewpoint Depression Visibility Wind Speed Wind Dir Waves Ship Positions

Diane H

Owner: BOYER TOWING INC, KETCHIKAN, AK. More information available from US FCC via Universal Licensing System and Coast Guard Vessel Documentation Center.

Last reported at 2015-Oct-30 13:13 UTC. Time now 2016-Feb-11 10:43 UTC.
Position N 47°32' W 122°20'.
Warning: this ship's position is months out of date.

Type: Towing. MMSI: 366673090.

Date/timePositionNaut miles runAvg speedWind from/ knotsBaromVisibWave heightAir tempDewpointWater temp
2015-Oct-30 13:13N 47°32' W 122°20'0 0.0
2015-Oct-30 12:22N 47°32' W 122°20'0 0.0
2015-Oct-30 11:22N 47°32' W 122°20'1 1.2
2015-Oct-30 10:33N 47°33' W 122°20'3 3.1
2015-Oct-30 09:33N 47°36' W 122°22'0 0.0
2015-Oct-30 09:33N 47°36' W 122°22'5 5.3
2015-Oct-30 08:34N 47°39' W 122°28'0 5.4
2015-Oct-30 08:33N 47°39' W 122°28'6 6.3
2015-Oct-30 07:34N 47°46' W 122°27'0 6.8
2015-Oct-30 07:33N 47°46' W 122°27'6 6.1
2015-Oct-30 06:33N 47°52' W 122°29'5 4.6
2015-Oct-30 05:33N 47°56' W 122°32'27 5.0
2015-Oct-30 00:11N 48°21' W 122°46'4 6.7
2015-Oct-29 23:33N 48°25' W 122°45'7 6.6
2015-Oct-29 22:33N 48°32' W 122°45'7 7.0
2015-Oct-29 21:33N 48°39' W 122°44'7 7.4
2015-Oct-29 20:33N 48°45' W 122°49'8 7.7
2015-Oct-29 19:30N 48°50' W 122°59'7 7.1
2015-Oct-29 18:33N 48°54' W 123°08'8 7.6
2015-Oct-29 17:33N 48°59' W 123°16'7 7.1
2015-Oct-29 16:33N 49°03' W 123°25'7 7.1
2015-Oct-29 15:33N 49°08' W 123°33'6 6.5
2015-Oct-29 14:33N 49°12' W 123°40'6 6.3
2015-Oct-29 13:33N 49°17' W 123°47'6 5.9
2015-Oct-29 12:33N 49°21' W 123°53'6 5.8
2015-Oct-29 11:33N 49°24' W 124°00'6 5.7
2015-Oct-29 10:33N 49°28' W 124°07'6 6.2
2015-Oct-29 09:33N 49°32' W 124°15'6 6.5
2015-Oct-29 08:33N 49°34' W 124°24'6 6.4
2015-Oct-29 07:33N 49°38' W 124°32'6 6.3
2015-Oct-29 06:33N 49°42' W 124°39'6 5.9
2015-Oct-29 05:33N 49°46' W 124°46'6 6.0
2015-Oct-29 04:33N 49°50' W 124°54'4 4.4
2015-Oct-29 03:33N 49°52' W 124°59'4 4.1
2015-Oct-29 02:33N 49°55' W 125°04'7 6.7
2015-Oct-29 01:33N 49°59' W 125°12'8 8.2
2015-Oct-29 00:33N 50°06' W 125°18'8 8.1
2015-Oct-28 23:32N 50°14' W 125°23'7 6.7
2015-Oct-28 22:33N 50°20' W 125°26'57 3.7
2015-Oct-28 07:09N 50°39' W 126°50'4 6.3
2015-Oct-28 06:31N 50°42' W 126°55'5 5.6
2015-Oct-28 05:33N 50°45' W 127°01'5 5.4
2015-Oct-28 04:33N 50°49' W 127°08'5 5.4
2015-Oct-28 03:33N 50°51' W 127°16'5 4.7
2015-Oct-28 02:33N 50°54' W 127°22'4 4.2
2015-Oct-28 01:33N 50°56' W 127°27'5 4.8
2015-Oct-28 00:33N 50°59' W 127°34'5 5.0
2015-Oct-27 23:33N 51°03' W 127°39'6 5.7
2015-Oct-27 22:33N 51°07' W 127°46'23 7.5
2015-Oct-27 19:29N 51°29' W 127°51'24 8.2
2015-Oct-27 16:31N 51°53' W 127°56'8 8.4
2015-Oct-27 15:33N 52°01' W 127°56'7 6.6
2015-Oct-27 14:33N 52°05' W 128°05'6 6.2
2015-Oct-27 13:33N 52°11' W 128°06'7 6.6
2015-Oct-27 12:33N 52°14' W 128°16'  
2015-Oct-22 01:00N 60°12' W 145°30'   050 / 15994.510.8 0.5 9.4

Dump ship's entire track history